sensor_id;sensor_type;location;lat;lon;timestamp;pressure;altitude;pressure_sealevel;temperature;humidity
3142;BME280;1581;51.568;6.998;2022-07-15T00:01:45;101487.69;;;18.02;100.00
3142;BME280;1581;51.568;6.998;2022-07-15T00:04:14;101491.38;;;18.07;100.00
3142;BME280;1581;51.568;6.998;2022-07-15T00:06:41;101496.38;;;18.04;100.00
3142;BME280;1581;51.568;6.998;2022-07-15T00:09:09;101501.38;;;18.00;100.00
3142;BME280;1581;51.568;6.998;2022-07-15T00:11:36;101491.47;;;18.18;100.00
3142;BME280;1581;51.568;6.998;2022-07-15T00:14:04;101491.59;;;18.36;100.00
3142;BME280;1581;51.568;6.998;2022-07-15T00:16:32;101487.75;;;18.44;100.00
3142;BME280;1581;51.568;6.998;2022-07-15T00:18:59;101495.16;;;18.30;100.00
3142;BME280;1581;51.568;6.998;2022-07-15T00:21:28;101479.22;;;18.47;98.64
3142;BME280;1581;51.568;6.998;2022-07-15T00:23:56;101485.09;;;18.62;97.54
3142;BME280;1581;51.568;6.998;2022-07-15T00:26:25;101482.25;;;18.57;97.10
3142;BME280;1581;51.568;6.998;2022-07-15T00:28:52;101484.03;;;18.14;98.85
3142;BME280;1581;51.568;6.998;2022-07-15T00:31:20;101480.19;;;18.04;100.00
3142;BME280;1581;51.568;6.998;2022-07-15T00:33:48;101486.75;;;18.14;98.93
3142;BME280;1581;51.568;6.998;2022-07-15T00:36:15;101489.38;;;18.20;98.95
3142;BME280;1581;51.568;6.998;2022-07-15T00:38:44;101495.59;;;17.97;99.86
3142;BME280;1581;51.568;6.998;2022-07-15T00:41:11;101490.44;;;17.89;100.00
3142;BME280;1581;51.568;6.998;2022-07-15T00:43:40;101493.03;;;18.08;98.87
3142;BME280;1581;51.568;6.998;2022-07-15T00:46:08;101486.56;;;17.85;99.59
3142;BME280;1581;51.568;6.998;2022-07-15T00:48:36;101485.72;;;17.84;99.83
3142;BME280;1581;51.568;6.998;2022-07-15T00:51:03;101495.66;;;17.90;99.19
3142;BME280;1581;51.568;6.998;2022-07-15T00:53:34;101487.53;;;17.59;100.00
3142;BME280;1581;51.568;6.998;2022-07-15T00:56:07;101486.41;;;17.73;100.00
3142;BME280;1581;51.568;6.998;2022-07-15T00:58:37;101483.00;;;17.53;100.00
3142;BME280;1581;51.568;6.998;2022-07-15T01:01:08;101485.78;;;17.40;100.00
3142;BME280;1581;51.568;6.998;2022-07-15T01:03:35;101487.56;;;17.53;100.00
3142;BME280;1581;51.568;6.998;2022-07-15T01:06:04;101488.78;;;17.57;100.00
3142;BME280;1581;51.568;6.998;2022-07-15T01:08:32;101487.47;;;17.35;100.00
3142;BME280;1581;51.568;6.998;2022-07-15T01:10:59;101489.44;;;17.52;100.00
3142;BME280;1581;51.568;6.998;2022-07-15T01:13:28;101498.75;;;17.56;100.00
3142;BME280;1581;51.568;6.998;2022-07-15T01:15:56;101497.13;;;17.49;100.00
3142;BME280;1581;51.568;6.998;2022-07-15T01:18:24;101492.84;;;17.41;100.00
3142;BME280;1581;51.568;6.998;2022-07-15T01:20:53;101491.75;;;17.42;100.00
3142;BME280;1581;51.568;6.998;2022-07-15T01:23:20;101485.97;;;17.39;100.00
3142;BME280;1581;51.568;6.998;2022-07-15T01:25:48;101492.38;;;17.44;100.00
3142;BME280;1581;51.568;6.998;2022-07-15T01:28:19;101497.50;;;17.52;100.00
3142;BME280;1581;51.568;6.998;2022-07-15T01:30:47;101496.66;;;17.58;100.00
3142;BME280;1581;51.568;6.998;2022-07-15T01:33:15;101492.75;;;17.54;100.00
3142;BME280;1581;51.568;6.998;2022-07-15T01:35:43;101496.28;;;17.55;100.00
3142;BME280;1581;51.568;6.998;2022-07-15T01:38:11;101499.25;;;17.40;100.00
3142;BME280;1581;51.568;6.998;2022-07-15T01:40:39;101499.28;;;17.21;100.00
3142;BME280;1581;51.568;6.998;2022-07-15T01:43:07;101490.81;;;17.18;100.00
3142;BME280;1581;51.568;6.998;2022-07-15T01:45:34;101503.25;;;17.19;100.00
3142;BME280;1581;51.568;6.998;2022-07-15T01:48:02;101501.00;;;17.03;100.00
3142;BME280;1581;51.568;6.998;2022-07-15T01:50:30;101507.66;;;16.94;100.00
3142;BME280;1581;51.568;6.998;2022-07-15T01:52:56;101502.00;;;17.15;100.00
3142;BME280;1581;51.568;6.998;2022-07-15T01:55:25;101502.47;;;16.99;100.00
3142;BME280;1581;51.568;6.998;2022-07-15T01:57:53;101509.38;;;16.75;100.00
3142;BME280;1581;51.568;6.998;2022-07-15T02:00:20;101507.72;;;16.74;100.00
3142;BME280;1581;51.568;6.998;2022-07-15T02:02:48;101509.78;;;16.85;100.00
3142;BME280;1581;51.568;6.998;2022-07-15T02:05:15;101512.50;;;16.59;100.00
3142;BME280;1581;51.568;6.998;2022-07-15T02:07:43;101508.75;;;16.54;100.00
3142;BME280;1581;51.568;6.998;2022-07-15T02:10:11;101506.50;;;16.38;100.00
3142;BME280;1581;51.568;6.998;2022-07-15T02:12:39;101504.81;;;16.24;100.00
3142;BME280;1581;51.568;6.998;2022-07-15T02:15:08;101494.91;;;16.25;100.00
3142;BME280;1581;51.568;6.998;2022-07-15T02:17:36;101506.06;;;16.15;100.00
3142;BME280;1581;51.568;6.998;2022-07-15T02:20:05;101506.88;;;15.96;100.00
3142;BME280;1581;51.568;6.998;2022-07-15T02:22:32;101511.00;;;15.99;100.00
3142;BME280;1581;51.568;6.998;2022-07-15T02:25:00;101510.16;;;15.92;100.00
3142;BME280;1581;51.568;6.998;2022-07-15T02:27:27;101509.34;;;16.04;100.00
3142;BME280;1581;51.568;6.998;2022-07-15T02:29:56;101499.22;;;16.00;100.00
3142;BME280;1581;51.568;6.998;2022-07-15T02:32:24;101504.41;;;16.01;100.00
3142;BME280;1581;51.568;6.998;2022-07-15T02:34:51;101500.88;;;16.01;100.00
3142;BME280;1581;51.568;6.998;2022-07-15T02:37:19;101503.13;;;15.84;100.00
3142;BME280;1581;51.568;6.998;2022-07-15T02:39:46;101503.94;;;15.78;100.00
3142;BME280;1581;51.568;6.998;2022-07-15T02:42:14;101509.69;;;15.69;100.00
3142;BME280;1581;51.568;6.998;2022-07-15T02:44:42;101507.63;;;15.64;100.00
3142;BME280;1581;51.568;6.998;2022-07-15T02:47:11;101504.72;;;15.53;100.00
3142;BME280;1581;51.568;6.998;2022-07-15T02:49:38;101511.69;;;15.41;100.00
3142;BME280;1581;51.568;6.998;2022-07-15T02:52:06;101510.88;;;15.41;100.00
3142;BME280;1581;51.568;6.998;2022-07-15T02:54:33;101509.38;;;15.38;100.00
3142;BME280;1581;51.568;6.998;2022-07-15T02:57:01;101508.94;;;15.28;100.00
3142;BME280;1581;51.568;6.998;2022-07-15T02:59:28;101520.66;;;15.21;100.00
3142;BME280;1581;51.568;6.998;2022-07-15T03:01:56;101513.81;;;15.12;100.00
3142;BME280;1581;51.568;6.998;2022-07-15T03:04:25;101520.97;;;15.05;100.00
3142;BME280;1581;51.568;6.998;2022-07-15T03:06:57;101524.47;;;14.99;100.00
3142;BME280;1581;51.568;6.998;2022-07-15T03:09:27;101521.59;;;15.00;100.00
3142;BME280;1581;51.568;6.998;2022-07-15T03:11:55;101526.13;;;15.00;100.00
3142;BME280;1581;51.568;6.998;2022-07-15T03:14:23;101528.56;;;14.95;100.00
3142;BME280;1581;51.568;6.998;2022-07-15T03:16:50;101526.69;;;14.89;100.00
3142;BME280;1581;51.568;6.998;2022-07-15T03:19:18;101526.25;;;14.85;100.00
3142;BME280;1581;51.568;6.998;2022-07-15T03:21:48;101529.59;;;14.94;100.00
3142;BME280;1581;51.568;6.998;2022-07-15T03:24:16;101537.66;;;14.94;100.00
3142;BME280;1581;51.568;6.998;2022-07-15T03:26:55;101534.06;;;14.80;100.00
3142;BME280;1581;51.568;6.998;2022-07-15T03:29:23;101544.34;;;14.77;100.00
3142;BME280;1581;51.568;6.998;2022-07-15T03:31:50;101533.63;;;14.77;100.00
3142;BME280;1581;51.568;6.998;2022-07-15T03:34:18;101538.13;;;14.70;100.00
3142;BME280;1581;51.568;6.998;2022-07-15T03:36:47;101537.31;;;14.76;100.00
3142;BME280;1581;51.568;6.998;2022-07-15T03:39:14;101542.25;;;14.72;100.00
3142;BME280;1581;51.568;6.998;2022-07-15T03:41:42;101543.50;;;14.70;100.00
3142;BME280;1581;51.568;6.998;2022-07-15T03:44:10;101547.41;;;14.74;100.00
3142;BME280;1581;51.568;6.998;2022-07-15T03:46:38;101560.03;;;14.73;100.00
3142;BME280;1581;51.568;6.998;2022-07-15T03:49:06;101558.56;;;14.71;100.00
3142;BME280;1581;51.568;6.998;2022-07-15T03:51:34;101556.25;;;14.68;100.00
3142;BME280;1581;51.568;6.998;2022-07-15T03:54:04;101561.38;;;14.63;100.00
3142;BME280;1581;51.568;6.998;2022-07-15T03:56:33;101560.13;;;14.59;100.00
3142;BME280;1581;51.568;6.998;2022-07-15T03:59:01;101564.41;;;14.54;100.00
3142;BME280;1581;51.568;6.998;2022-07-15T04:01:29;101561.94;;;14.52;100.00
3142;BME280;1581;51.568;6.998;2022-07-15T04:03:57;101564.53;;;14.66;100.00
3142;BME280;1581;51.568;6.998;2022-07-15T04:06:25;101568.41;;;14.64;100.00
3142;BME280;1581;51.568;6.998;2022-07-15T04:08:53;101566.09;;;14.82;100.00
3142;BME280;1581;51.568;6.998;2022-07-15T04:11:22;101571.19;;;14.77;100.00
3142;BME280;1581;51.568;6.998;2022-07-15T04:13:49;101573.66;;;14.78;100.00
3142;BME280;1581;51.568;6.998;2022-07-15T04:16:17;101572.66;;;14.79;100.00
3142;BME280;1581;51.568;6.998;2022-07-15T04:18:45;101581.75;;;14.85;100.00
3142;BME280;1581;51.568;6.998;2022-07-15T04:21:13;101589.50;;;14.94;100.00
3142;BME280;1581;51.568;6.998;2022-07-15T04:23:40;101593.50;;;15.39;100.00
3142;BME280;1581;51.568;6.998;2022-07-15T04:26:08;101596.69;;;15.55;100.00
3142;BME280;1581;51.568;6.998;2022-07-15T04:28:37;101594.75;;;15.43;100.00
3142;BME280;1581;51.568;6.998;2022-07-15T04:31:05;101593.88;;;15.36;100.00
3142;BME280;1581;51.568;6.998;2022-07-15T04:33:32;101605.22;;;15.31;100.00
3142;BME280;1581;51.568;6.998;2022-07-15T04:36:00;101608.13;;;15.30;100.00
3142;BME280;1581;51.568;6.998;2022-07-15T04:38:27;101605.94;;;15.52;100.00
3142;BME280;1581;51.568;6.998;2022-07-15T04:40:55;101619.97;;;15.42;100.00
3142;BME280;1581;51.568;6.998;2022-07-15T04:43:23;101622.19;;;15.38;100.00
3142;BME280;1581;51.568;6.998;2022-07-15T04:45:52;101614.00;;;15.52;100.00
3142;BME280;1581;51.568;6.998;2022-07-15T04:48:19;101623.25;;;15.44;100.00
3142;BME280;1581;51.568;6.998;2022-07-15T04:51:13;101624.94;;;15.45;100.00
3142;BME280;1581;51.568;6.998;2022-07-15T04:53:40;101623.72;;;15.53;100.00
3142;BME280;1581;51.568;6.998;2022-07-15T04:56:08;101625.94;;;15.84;100.00
3142;BME280;1581;51.568;6.998;2022-07-15T04:58:36;101628.25;;;16.00;100.00
3142;BME280;1581;51.568;6.998;2022-07-15T05:01:05;101626.00;;;16.03;100.00
3142;BME280;1581;51.568;6.998;2022-07-15T05:03:33;101631.94;;;15.79;100.00
3142;BME280;1581;51.568;6.998;2022-07-15T05:06:01;101627.06;;;16.09;100.00
3142;BME280;1581;51.568;6.998;2022-07-15T05:08:28;101629.38;;;16.18;100.00
3142;BME280;1581;51.568;6.998;2022-07-15T05:10:56;101632.34;;;16.49;100.00
3142;BME280;1581;51.568;6.998;2022-07-15T05:13:24;101621.69;;;16.15;100.00
3142;BME280;1581;51.568;6.998;2022-07-15T05:15:51;101624.38;;;16.15;100.00
3142;BME280;1581;51.568;6.998;2022-07-15T05:18:20;101623.13;;;16.05;100.00
3142;BME280;1581;51.568;6.998;2022-07-15T05:20:48;101611.72;;;15.96;100.00
3142;BME280;1581;51.568;6.998;2022-07-15T05:23:16;101617.16;;;16.16;100.00
3142;BME280;1581;51.568;6.998;2022-07-15T05:25:44;101623.97;;;16.12;100.00
3142;BME280;1581;51.568;6.998;2022-07-15T05:28:12;101620.22;;;16.06;100.00
3142;BME280;1581;51.568;6.998;2022-07-15T05:30:40;101617.34;;;16.14;100.00
3142;BME280;1581;51.568;6.998;2022-07-15T05:33:07;101615.91;;;16.18;100.00
3142;BME280;1581;51.568;6.998;2022-07-15T05:35:36;101611.16;;;16.14;100.00
3142;BME280;1581;51.568;6.998;2022-07-15T05:38:04;101613.66;;;16.28;100.00
3142;BME280;1581;51.568;6.998;2022-07-15T05:40:32;101611.16;;;16.14;100.00
3142;BME280;1581;51.568;6.998;2022-07-15T05:42:59;101614.53;;;16.35;100.00
3142;BME280;1581;51.568;6.998;2022-07-15T05:45:27;101618.25;;;16.34;100.00
3142;BME280;1581;51.568;6.998;2022-07-15T05:47:55;101620.72;;;16.42;100.00
3142;BME280;1581;51.568;6.998;2022-07-15T05:50:22;101617.00;;;16.43;100.00
3142;BME280;1581;51.568;6.998;2022-07-15T05:52:51;101616.81;;;16.44;100.00
3142;BME280;1581;51.568;6.998;2022-07-15T05:55:19;101619.50;;;16.64;100.00
3142;BME280;1581;51.568;6.998;2022-07-15T05:57:47;101624.28;;;16.75;100.00
3142;BME280;1581;51.568;6.998;2022-07-15T06:00:16;101622.63;;;16.80;100.00
3142;BME280;1581;51.568;6.998;2022-07-15T06:02:44;101619.31;;;16.91;100.00
3142;BME280;1581;51.568;6.998;2022-07-15T06:05:11;101622.81;;;17.11;100.00
3142;BME280;1581;51.568;6.998;2022-07-15T06:07:39;101618.69;;;17.09;100.00
3142;BME280;1581;51.568;6.998;2022-07-15T06:10:09;101624.00;;;17.28;100.00
3142;BME280;1581;51.568;6.998;2022-07-15T06:12:37;101616.56;;;17.36;100.00
3142;BME280;1581;51.568;6.998;2022-07-15T06:15:06;101624.88;;;17.28;100.00
3142;BME280;1581;51.568;6.998;2022-07-15T06:17:35;101621.75;;;17.25;100.00
3142;BME280;1581;51.568;6.998;2022-07-15T06:20:04;101618.84;;;17.39;100.00
3142;BME280;1581;51.568;6.998;2022-07-15T06:22:32;101623.59;;;17.50;100.00
3142;BME280;1581;51.568;6.998;2022-07-15T06:24:59;101624.81;;;17.54;100.00
3142;BME280;1581;51.568;6.998;2022-07-15T06:27:29;101630.50;;;17.84;100.00
3142;BME280;1581;51.568;6.998;2022-07-15T06:29:58;101633.47;;;18.13;100.00
3142;BME280;1581;51.568;6.998;2022-07-15T06:32:26;101628.28;;;18.12;100.00
3142;BME280;1581;51.568;6.998;2022-07-15T06:34:54;101632.00;;;18.17;100.00
3142;BME280;1581;51.568;6.998;2022-07-15T06:37:22;101634.03;;;18.28;100.00
3142;BME280;1581;51.568;6.998;2022-07-15T06:39:50;101637.72;;;18.40;100.00
3142;BME280;1581;51.568;6.998;2022-07-15T06:42:19;101639.56;;;18.39;99.93
3142;BME280;1581;51.568;6.998;2022-07-15T06:44:48;101637.22;;;18.49;100.00
3142;BME280;1581;51.568;6.998;2022-07-15T06:47:16;101637.50;;;18.66;98.46
3142;BME280;1581;51.568;6.998;2022-07-15T06:49:44;101641.88;;;18.67;98.40
3142;BME280;1581;51.568;6.998;2022-07-15T06:52:11;101641.25;;;18.65;99.29
3142;BME280;1581;51.568;6.998;2022-07-15T06:54:39;101629.47;;;18.84;99.46
3142;BME280;1581;51.568;6.998;2022-07-15T06:57:06;101634.81;;;18.90;98.95
3142;BME280;1581;51.568;6.998;2022-07-15T06:59:35;101638.22;;;19.03;98.99
3142;BME280;1581;51.568;6.998;2022-07-15T07:02:04;101637.41;;;19.03;98.83
3142;BME280;1581;51.568;6.998;2022-07-15T07:04:32;101635.69;;;19.08;99.19
3142;BME280;1581;51.568;6.998;2022-07-15T07:06:59;101644.16;;;19.18;99.00
3142;BME280;1581;51.568;6.998;2022-07-15T07:09:27;101643.91;;;19.20;97.57
3142;BME280;1581;51.568;6.998;2022-07-15T07:11:54;101641.22;;;19.20;96.99
3142;BME280;1581;51.568;6.998;2022-07-15T07:14:33;101641.59;;;19.23;97.12
3142;BME280;1581;51.568;6.998;2022-07-15T07:17:03;101644.63;;;19.33;96.29
3142;BME280;1581;51.568;6.998;2022-07-15T07:19:32;101646.38;;;19.46;95.64
3142;BME280;1581;51.568;6.998;2022-07-15T07:22:00;101648.00;;;19.47;95.03
3142;BME280;1581;51.568;6.998;2022-07-15T07:24:30;101648.59;;;19.67;95.00
3142;BME280;1581;51.568;6.998;2022-07-15T07:26:58;101636.53;;;19.69;94.04
3142;BME280;1581;51.568;6.998;2022-07-15T07:29:26;101653.13;;;19.55;92.79
3142;BME280;1581;51.568;6.998;2022-07-15T07:31:54;101641.03;;;19.39;92.77
3142;BME280;1581;51.568;6.998;2022-07-15T07:34:23;101642.06;;;19.20;94.06
3142;BME280;1581;51.568;6.998;2022-07-15T07:36:50;101639.78;;;19.17;95.11
3142;BME280;1581;51.568;6.998;2022-07-15T07:39:18;101640.72;;;19.29;95.97
3142;BME280;1581;51.568;6.998;2022-07-15T07:41:45;101645.28;;;19.29;95.64
3142;BME280;1581;51.568;6.998;2022-07-15T07:44:13;101646.88;;;19.36;96.41
3142;BME280;1581;51.568;6.998;2022-07-15T07:46:41;101644.78;;;19.56;95.86
3142;BME280;1581;51.568;6.998;2022-07-15T07:49:08;101645.16;;;19.42;95.55
3142;BME280;1581;51.568;6.998;2022-07-15T07:51:37;101645.25;;;19.11;95.03
3142;BME280;1581;51.568;6.998;2022-07-15T07:54:06;101643.41;;;19.11;95.65
3142;BME280;1581;51.568;6.998;2022-07-15T07:56:35;101649.22;;;19.08;96.34
3142;BME280;1581;51.568;6.998;2022-07-15T07:59:02;101641.50;;;18.88;95.83
3142;BME280;1581;51.568;6.998;2022-07-15T08:01:30;101645.91;;;19.06;97.13
3142;BME280;1581;51.568;6.998;2022-07-15T08:03:57;101645.81;;;19.19;95.89
3142;BME280;1581;51.568;6.998;2022-07-15T08:06:25;101640.53;;;19.24;95.56
3142;BME280;1581;51.568;6.998;2022-07-15T08:08:54;101647.00;;;19.23;93.02
3142;BME280;1581;51.568;6.998;2022-07-15T08:11:21;101645.34;;;18.98;92.55
3142;BME280;1581;51.568;6.998;2022-07-15T08:13:49;101642.44;;;18.75;94.51
3142;BME280;1581;51.568;6.998;2022-07-15T08:16:17;101642.63;;;18.98;95.19
3142;BME280;1581;51.568;6.998;2022-07-15T08:18:44;101644.47;;;19.04;93.13
3142;BME280;1581;51.568;6.998;2022-07-15T08:21:12;101642.25;;;18.95;91.04
3142;BME280;1581;51.568;6.998;2022-07-15T08:23:40;101643.91;;;19.20;92.20
3142;BME280;1581;51.568;6.998;2022-07-15T08:26:08;101650.75;;;19.22;91.17
3142;BME280;1581;51.568;6.998;2022-07-15T08:28:37;101645.16;;;19.42;92.04
3142;BME280;1581;51.568;6.998;2022-07-15T08:31:06;101649.34;;;19.38;91.66
3142;BME280;1581;51.568;6.998;2022-07-15T08:33:33;101645.47;;;19.52;91.10
3142;BME280;1581;51.568;6.998;2022-07-15T08:36:01;101649.69;;;19.66;90.07
3142;BME280;1581;51.568;6.998;2022-07-15T08:38:28;101654.47;;;19.64;89.99
3142;BME280;1581;51.568;6.998;2022-07-15T08:40:56;101647.78;;;19.66;87.61
3142;BME280;1581;51.568;6.998;2022-07-15T08:43:25;101655.59;;;19.74;88.87
3142;BME280;1581;51.568;6.998;2022-07-15T08:45:53;101653.94;;;19.73;87.62
3142;BME280;1581;51.568;6.998;2022-07-15T08:48:26;101654.84;;;19.67;85.88
3142;BME280;1581;51.568;6.998;2022-07-15T08:50:55;101652.97;;;19.68;86.58
3142;BME280;1581;51.568;6.998;2022-07-15T08:53:23;101649.91;;;20.00;87.31
3142;BME280;1581;51.568;6.998;2022-07-15T08:55:50;101647.16;;;20.18;85.56
3142;BME280;1581;51.568;6.998;2022-07-15T08:58:18;101647.25;;;20.11;86.55
3142;BME280;1581;51.568;6.998;2022-07-15T09:00:48;101647.09;;;20.06;86.50
3142;BME280;1581;51.568;6.998;2022-07-15T09:03:16;101651.09;;;20.33;85.53
3142;BME280;1581;51.568;6.998;2022-07-15T09:05:44;101645.50;;;20.46;84.30
3142;BME280;1581;51.568;6.998;2022-07-15T09:08:13;101643.47;;;20.42;84.30
3142;BME280;1581;51.568;6.998;2022-07-15T09:10:48;101648.97;;;20.65;84.58
3142;BME280;1581;51.568;6.998;2022-07-15T09:13:30;101637.75;;;20.90;84.63
3142;BME280;1581;51.568;6.998;2022-07-15T09:16:01;101632.66;;;21.17;82.94
3142;BME280;1581;51.568;6.998;2022-07-15T09:18:32;101638.81;;;21.24;81.28
3142;BME280;1581;51.568;6.998;2022-07-15T09:21:02;101634.66;;;21.21;81.11
3142;BME280;1581;51.568;6.998;2022-07-15T09:23:31;101636.09;;;21.12;81.33
3142;BME280;1581;51.568;6.998;2022-07-15T09:26:21;101646.09;;;20.89;81.79
3142;BME280;1581;51.568;6.998;2022-07-15T09:28:51;101635.25;;;20.89;83.04
3142;BME280;1581;51.568;6.998;2022-07-15T09:31:30;101637.84;;;20.84;82.30
3142;BME280;1581;51.568;6.998;2022-07-15T09:34:14;101645.28;;;20.88;81.03
3142;BME280;1581;51.568;6.998;2022-07-15T09:36:46;101641.88;;;20.93;81.33
3142;BME280;1581;51.568;6.998;2022-07-15T09:39:18;101642.91;;;20.81;79.62
3142;BME280;1581;51.568;6.998;2022-07-15T09:41:48;101635.56;;;20.70;80.34
3142;BME280;1581;51.568;6.998;2022-07-15T09:44:19;101640.47;;;20.90;78.31
3142;BME280;1581;51.568;6.998;2022-07-15T09:46:49;101635.84;;;21.02;77.79
3142;BME280;1581;51.568;6.998;2022-07-15T09:49:31;101645.16;;;21.06;78.04
3142;BME280;1581;51.568;6.998;2022-07-15T09:52:02;101638.94;;;21.40;77.30
3142;BME280;1581;51.568;6.998;2022-07-15T09:54:34;101630.75;;;21.52;80.58
3142;BME280;1581;51.568;6.998;2022-07-15T09:57:05;101632.63;;;21.74;77.60
3142;BME280;1581;51.568;6.998;2022-07-15T09:59:36;101644.28;;;21.86;77.04
3142;BME280;1581;51.568;6.998;2022-07-15T10:02:03;101639.59;;;22.09;76.66
3142;BME280;1581;51.568;6.998;2022-07-15T10:04:31;101632.03;;;22.11;73.67
3142;BME280;1581;51.568;6.998;2022-07-15T10:06:59;101639.53;;;21.93;75.01
3142;BME280;1581;51.568;6.998;2022-07-15T10:09:29;101638.19;;;21.67;75.68
3142;BME280;1581;51.568;6.998;2022-07-15T10:12:02;101640.81;;;21.63;77.61
3142;BME280;1581;51.568;6.998;2022-07-15T10:14:59;101631.09;;;21.78;77.55
3142;BME280;1581;51.568;6.998;2022-07-15T10:17:52;101628.66;;;21.93;75.26
3142;BME280;1581;51.568;6.998;2022-07-15T10:24:22;101637.72;;;22.10;73.82
3142;BME280;1581;51.568;6.998;2022-07-15T10:27:09;101630.72;;;22.14;73.68
3142;BME280;1581;51.568;6.998;2022-07-15T10:29:42;101636.53;;;22.06;71.25
3142;BME280;1581;51.568;6.998;2022-07-15T10:32:12;101631.03;;;22.01;71.46
3142;BME280;1581;51.568;6.998;2022-07-15T10:34:39;101640.13;;;21.95;69.34
3142;BME280;1581;51.568;6.998;2022-07-15T10:37:08;101638.69;;;21.65;68.11
3142;BME280;1581;51.568;6.998;2022-07-15T10:39:56;101633.75;;;21.89;69.91
3142;BME280;1581;51.568;6.998;2022-07-15T10:42:57;101630.09;;;21.95;70.10
3142;BME280;1581;51.568;6.998;2022-07-15T10:45:25;101635.47;;;22.07;69.38
3142;BME280;1581;51.568;6.998;2022-07-15T10:48:28;101630.66;;;22.37;68.36
3142;BME280;1581;51.568;6.998;2022-07-15T10:50:56;101628.22;;;22.68;64.16
3142;BME280;1581;51.568;6.998;2022-07-15T10:53:25;101621.25;;;23.05;64.00
3142;BME280;1581;51.568;6.998;2022-07-15T10:55:53;101619.47;;;23.32;59.02
3142;BME280;1581;51.568;6.998;2022-07-15T10:58:21;101619.47;;;23.32;58.38
3142;BME280;1581;51.568;6.998;2022-07-15T11:00:49;101626.44;;;23.23;57.13
3142;BME280;1581;51.568;6.998;2022-07-15T11:03:19;101626.09;;;22.86;60.50
3142;BME280;1581;51.568;6.998;2022-07-15T11:06:07;101615.78;;;22.56;60.12
3142;BME280;1581;51.568;6.998;2022-07-15T11:08:53;101602.38;;;22.82;60.31
3142;BME280;1581;51.568;6.998;2022-07-15T11:11:48;101599.97;;;23.18;57.71
3142;BME280;1581;51.568;6.998;2022-07-15T11:14:49;101602.22;;;22.88;54.90
3142;BME280;1581;51.568;6.998;2022-07-15T11:17:24;101592.16;;;22.89;57.03
3142;BME280;1581;51.568;6.998;2022-07-15T11:19:57;101597.19;;;22.64;55.61
3142;BME280;1581;51.568;6.998;2022-07-15T11:22:28;101589.53;;;23.10;53.14
3142;BME280;1581;51.568;6.998;2022-07-15T11:24:57;101585.44;;;24.15;56.45
3142;BME280;1581;51.568;6.998;2022-07-15T11:27:27;101579.91;;;25.35;49.50
3142;BME280;1581;51.568;6.998;2022-07-15T11:30:02;101585.88;;;25.83;46.54
3142;BME280;1581;51.568;6.998;2022-07-15T11:32:33;101583.84;;;26.40;43.90
3142;BME280;1581;51.568;6.998;2022-07-15T11:35:02;101585.47;;;26.41;44.34
3142;BME280;1581;51.568;6.998;2022-07-15T11:37:34;101575.84;;;26.09;42.44
3142;BME280;1581;51.568;6.998;2022-07-15T11:40:09;101578.00;;;26.02;44.94
3142;BME280;1581;51.568;6.998;2022-07-15T11:42:39;101586.44;;;25.90;44.09
3142;BME280;1581;51.568;6.998;2022-07-15T11:45:37;101583.47;;;25.40;44.30
3142;BME280;1581;51.568;6.998;2022-07-15T11:48:06;101573.88;;;24.92;45.18
3142;BME280;1581;51.568;6.998;2022-07-15T11:50:35;101578.38;;;24.76;46.39
3142;BME280;1581;51.568;6.998;2022-07-15T11:53:14;101581.59;;;25.05;47.76
3142;BME280;1581;51.568;6.998;2022-07-15T11:55:54;101575.63;;;25.54;44.69
3142;BME280;1581;51.568;6.998;2022-07-15T11:58:31;101578.34;;;26.25;42.66
3142;BME280;1581;51.568;6.998;2022-07-15T12:01:01;101571.22;;;26.14;41.09
3142;BME280;1581;51.568;6.998;2022-07-15T12:03:39;101573.72;;;25.59;41.86
3142;BME280;1581;51.568;6.998;2022-07-15T12:06:13;101575.69;;;25.18;44.75
3142;BME280;1581;51.568;6.998;2022-07-15T12:08:47;101569.22;;;24.92;44.17
3142;BME280;1581;51.568;6.998;2022-07-15T12:11:20;101576.28;;;24.52;45.76
3142;BME280;1581;51.568;6.998;2022-07-15T12:13:57;101568.22;;;25.03;45.36
3142;BME280;1581;51.568;6.998;2022-07-15T12:16:29;101567.22;;;25.14;45.89
3142;BME280;1581;51.568;6.998;2022-07-15T12:19:02;101576.78;;;25.73;44.28
3142;BME280;1581;51.568;6.998;2022-07-15T12:21:31;101583.03;;;26.89;40.54
3142;BME280;1581;51.568;6.998;2022-07-15T12:24:09;101581.28;;;27.48;37.23
3142;BME280;1581;51.568;6.998;2022-07-15T12:26:40;101581.28;;;27.48;39.20
3142;BME280;1581;51.568;6.998;2022-07-15T12:29:10;101576.44;;;26.85;39.36
3142;BME280;1581;51.568;6.998;2022-07-15T12:31:40;101564.38;;;26.21;39.62
3142;BME280;1581;51.568;6.998;2022-07-15T12:34:09;101570.31;;;25.89;41.54
3142;BME280;1581;51.568;6.998;2022-07-15T12:36:37;101576.19;;;26.72;40.10
3142;BME280;1581;51.568;6.998;2022-07-15T12:39:11;101574.25;;;26.37;40.00
3142;BME280;1581;51.568;6.998;2022-07-15T12:42:05;101571.38;;;25.78;41.47
3142;BME280;1581;51.568;6.998;2022-07-15T12:44:38;101569.53;;;25.37;41.30
3142;BME280;1581;51.568;6.998;2022-07-15T12:47:08;101567.22;;;25.14;42.85
3142;BME280;1581;51.568;6.998;2022-07-15T12:49:48;101557.00;;;24.95;43.83
3142;BME280;1581;51.568;6.998;2022-07-15T12:52:28;101559.16;;;24.93;43.82
3142;BME280;1581;51.568;6.998;2022-07-15T12:55:10;101555.06;;;26.22;43.10
3142;BME280;1581;51.568;6.998;2022-07-15T12:57:38;101566.19;;;29.60;36.05
3142;BME280;1581;51.568;6.998;2022-07-15T13:00:12;101574.09;;;31.36;32.66
3142;BME280;1581;51.568;6.998;2022-07-15T13:03:01;101563.22;;;29.75;33.75
3142;BME280;1581;51.568;6.998;2022-07-15T13:05:31;101570.88;;;30.20;33.15
3142;BME280;1581;51.568;6.998;2022-07-15T13:08:00;101572.31;;;30.99;32.92
3142;BME280;1581;51.568;6.998;2022-07-15T13:10:30;101566.75;;;31.18;31.23
3142;BME280;1581;51.568;6.998;2022-07-15T13:12:58;101570.56;;;30.21;31.72
3142;BME280;1581;51.568;6.998;2022-07-15T13:15:25;101575.34;;;31.57;31.25
3142;BME280;1581;51.568;6.998;2022-07-15T13:17:54;101569.28;;;32.08;30.33
3142;BME280;1581;51.568;6.998;2022-07-15T13:20:23;101581.97;;;31.29;28.26
3142;BME280;1581;51.568;6.998;2022-07-15T13:22:51;101576.47;;;31.42;29.90
3142;BME280;1581;51.568;6.998;2022-07-15T13:25:19;101566.69;;;30.22;31.91